SWR187 LFBD-LSZH
Flight info
| Callsign | SWR187 |
|---|---|
| Flight time | 1h 12m |
| Altitude | 34000 |
| Route | OBLOC DCT SECHE DCT NARAK DCT DITEV DCT MEN DCT NINUN DCT LATAM DCT ETREK/N0446F300 DCT LTP DCT SOPLO DCT OMASI DCT KINNI DCT SOSAL DCT KORED/N0420F260 N871 BERSU |
| Aircraft | A320/M-SDE3FGHIRWY/LB1 |
Departure
| Time | 2026-05-07 18:09 |
|---|---|
| Airport | Bordeaux–Mérignac Airport (LFBD) |
Arrival
| Time | 2026-05-07 19:22 |
|---|---|
| Airport | Zürich Airport (LSZH) |
| Time | Latitude | Longitude | Altitude | Speed | Heading |
|---|---|---|---|---|---|
| 2026-05-07 17:46 | 44.83219 | -0.70309 | 164 ft | 0 kts | 121° |
| 2026-05-07 18:01 | 44.83223 | -0.70319 | 163 ft | 3 kts | 122° |
| 2026-05-07 18:01 | 44.83236 | -0.70347 | 163 ft | 3 kts | 128° |
| 2026-05-07 18:01 | 44.83252 | -0.70372 | 163 ft | 3 kts | 143° |
| 2026-05-07 18:01 | 44.83271 | -0.70385 | 163 ft | 3 kts | 201° |
| 2026-05-07 18:02 | 44.83277 | -0.70382 | 163 ft | 0 kts | 224° |
| 2026-05-07 18:03 | 44.83240 | -0.70433 | 163 ft | 13 kts | 226° |
| 2026-05-07 18:03 | 44.83201 | -0.70533 | 163 ft | 11 kts | 277° |
| 2026-05-07 18:04 | 44.83167 | -0.70657 | 163 ft | 18 kts | 223° |
| 2026-05-07 18:04 | 44.83085 | -0.70770 | 164 ft | 15 kts | 225° |
| 2026-05-07 18:04 | 44.83015 | -0.70867 | 164 ft | 13 kts | 224° |
| 2026-05-07 18:04 | 44.82959 | -0.70952 | 165 ft | 11 kts | 243° |
| 2026-05-07 18:05 | 44.82972 | -0.71082 | 164 ft | 18 kts | 284° |
| 2026-05-07 18:05 | 44.83004 | -0.71243 | 163 ft | 16 kts | 286° |
| 2026-05-07 18:05 | 44.83033 | -0.71382 | 165 ft | 13 kts | 286° |
| 2026-05-07 18:05 | 44.83058 | -0.71501 | 165 ft | 12 kts | 286° |
| 2026-05-07 18:06 | 44.83082 | -0.71607 | 165 ft | 11 kts | 288° |
| 2026-05-07 18:06 | 44.83103 | -0.71703 | 165 ft | 12 kts | 287° |
| 2026-05-07 18:06 | 44.83137 | -0.71862 | 164 ft | 18 kts | 287° |
| 2026-05-07 18:06 | 44.83163 | -0.72027 | 164 ft | 16 kts | 262° |
| 2026-05-07 18:07 | 44.83088 | -0.72113 | 164 ft | 13 kts | 194° |
| 2026-05-07 18:07 | 44.83014 | -0.72157 | 164 ft | 12 kts | 234° |
| 2026-05-07 18:07 | 44.83045 | -0.72366 | 164 ft | 29 kts | 285° |
| 2026-05-07 18:07 | 44.83101 | -0.72652 | 162 ft | 31 kts | 287° |
| 2026-05-07 18:08 | 44.83131 | -0.72868 | 162 ft | 6 kts | 306° |
| 2026-05-07 18:08 | 44.83139 | -0.72821 | 162 ft | 14 kts | 109° |
| 2026-05-07 18:08 | 44.83132 | -0.72792 | 162 ft | 0 kts | 108° |
| 2026-05-07 18:08 | 44.83132 | -0.72790 | 162 ft | 1 kts | 108° |
| 2026-05-07 18:09 | 44.83078 | -0.72543 | 162 ft | 63 kts | 107° |
| 2026-05-07 18:09 | 44.82890 | -0.71654 | 167 ft | 124 kts | 106° |
| 2026-05-07 18:09 | 44.82613 | -0.70312 | 394 ft | 148 kts | 108° |
| 2026-05-07 18:09 | 44.82308 | -0.68888 | 858 ft | 156 kts | 109° |
| 2026-05-07 18:10 | 44.81661 | -0.67659 | 1342 ft | 168 kts | 146° |
| 2026-05-07 18:10 | 44.80644 | -0.66673 | 1644 ft | 188 kts | 129° |
| 2026-05-07 18:10 | 44.80037 | -0.64945 | 1912 ft | 209 kts | 107° |
| 2026-05-07 18:10 | 44.79629 | -0.62882 | 2333 ft | 227 kts | 104° |
| 2026-05-07 18:11 | 44.79222 | -0.60657 | 2863 ft | 245 kts | 105° |
| 2026-05-07 18:11 | 44.78913 | -0.59071 | 3310 ft | 252 kts | 106° |
| 2026-05-07 18:11 | 44.78231 | -0.55894 | 4437 ft | 259 kts | 108° |
| 2026-05-07 18:11 | 44.77663 | -0.53465 | 5277 ft | 264 kts | 109° |
| 2026-05-07 18:12 | 44.77053 | -0.50985 | 6041 ft | 272 kts | 109° |
| 2026-05-07 18:12 | 44.76410 | -0.48449 | 6767 ft | 279 kts | 110° |
| 2026-05-07 18:12 | 44.75743 | -0.45866 | 7546 ft | 283 kts | 110° |
| 2026-05-07 18:12 | 44.75058 | -0.43254 | 8339 ft | 287 kts | 111° |
| 2026-05-07 18:13 | 44.74360 | -0.40603 | 9139 ft | 291 kts | 111° |
| 2026-05-07 18:13 | 44.73654 | -0.37924 | 9932 ft | 294 kts | 111° |
| 2026-05-07 18:13 | 44.72924 | -0.35161 | 10338 ft | 312 kts | 111° |
| 2026-05-07 18:13 | 44.72141 | -0.32194 | 10544 ft | 335 kts | 111° |
| 2026-05-07 18:14 | 44.71396 | -0.29027 | 11031 ft | 346 kts | 102° |
| 2026-05-07 18:14 | 44.71309 | -0.25628 | 11682 ft | 353 kts | 84° |
| 2026-05-07 18:14 | 44.71601 | -0.22182 | 12379 ft | 357 kts | 83° |
| 2026-05-07 18:14 | 44.71913 | -0.18702 | 13057 ft | 361 kts | 83° |
| 2026-05-07 18:15 | 44.72237 | -0.15183 | 13732 ft | 366 kts | 84° |
| 2026-05-07 18:15 | 44.72567 | -0.11617 | 14313 ft | 370 kts | 84° |
| 2026-05-07 18:15 | 44.72897 | -0.08006 | 14903 ft | 374 kts | 84° |
| 2026-05-07 18:15 | 44.73227 | -0.04362 | 15497 ft | 378 kts | 84° |
| 2026-05-07 18:16 | 44.73559 | -0.00683 | 16079 ft | 381 kts | 84° |
| 2026-05-07 18:16 | 44.73893 | 0.03037 | 16662 ft | 385 kts | 84° |
| 2026-05-07 18:16 | 44.74227 | 0.06788 | 17251 ft | 389 kts | 84° |
| 2026-05-07 18:16 | 44.74560 | 0.10576 | 17836 ft | 392 kts | 84° |
| 2026-05-07 18:17 | 44.74895 | 0.14403 | 18387 ft | 396 kts | 84° |
| 2026-05-07 18:17 | 44.75232 | 0.18262 | 18896 ft | 399 kts | 84° |
| 2026-05-07 18:17 | 44.75571 | 0.22150 | 19420 ft | 402 kts | 84° |
| 2026-05-07 18:17 | 44.75910 | 0.26066 | 19947 ft | 405 kts | 84° |
| 2026-05-07 18:18 | 44.76250 | 0.30008 | 20473 ft | 407 kts | 84° |
| 2026-05-07 18:18 | 44.76594 | 0.33978 | 21005 ft | 410 kts | 84° |
| 2026-05-07 18:18 | 44.76939 | 0.37979 | 21526 ft | 413 kts | 84° |
| 2026-05-07 18:18 | 44.77284 | 0.42009 | 22028 ft | 416 kts | 84° |
| 2026-05-07 18:19 | 44.77629 | 0.46065 | 22523 ft | 419 kts | 84° |
| 2026-05-07 18:19 | 44.77974 | 0.50150 | 23013 ft | 422 kts | 84° |
| 2026-05-07 18:19 | 44.78323 | 0.54256 | 23481 ft | 424 kts | 85° |
| 2026-05-07 18:19 | 44.78673 | 0.58393 | 23857 ft | 427 kts | 85° |
| 2026-05-07 18:20 | 44.79023 | 0.62561 | 24243 ft | 430 kts | 85° |
| 2026-05-07 18:20 | 44.79372 | 0.66749 | 24609 ft | 432 kts | 85° |
| 2026-05-07 18:20 | 44.79722 | 0.70964 | 24977 ft | 435 kts | 85° |
| 2026-05-07 18:20 | 44.80073 | 0.75203 | 25324 ft | 437 kts | 85° |
| 2026-05-07 18:21 | 44.80423 | 0.79461 | 25669 ft | 439 kts | 85° |
| 2026-05-07 18:21 | 44.80770 | 0.83748 | 26013 ft | 442 kts | 85° |
| 2026-05-07 18:21 | 44.81119 | 0.88055 | 26349 ft | 444 kts | 85° |
| 2026-05-07 18:21 | 44.81469 | 0.92388 | 26677 ft | 446 kts | 85° |
| 2026-05-07 18:22 | 44.81820 | 0.96741 | 27003 ft | 449 kts | 85° |
| 2026-05-07 18:22 | 44.82053 | 0.99634 | 27212 ft | 450 kts | 85° |
| 2026-05-07 18:22 | 44.82526 | 1.05515 | 27639 ft | 453 kts | 85° |
| 2026-05-07 18:22 | 44.82881 | 1.09937 | 27946 ft | 455 kts | 86° |
| 2026-05-07 18:23 | 44.83233 | 1.14381 | 28246 ft | 458 kts | 86° |
| 2026-05-07 18:23 | 44.83583 | 1.18845 | 28544 ft | 460 kts | 86° |
| 2026-05-07 18:23 | 44.83934 | 1.23335 | 28833 ft | 462 kts | 86° |
| 2026-05-07 18:23 | 44.84284 | 1.27841 | 29110 ft | 464 kts | 86° |
| 2026-05-07 18:24 | 44.84634 | 1.32375 | 29386 ft | 466 kts | 86° |
| 2026-05-07 18:24 | 44.84985 | 1.36922 | 29643 ft | 468 kts | 86° |
| 2026-05-07 18:24 | 44.85336 | 1.41494 | 29899 ft | 470 kts | 86° |
| 2026-05-07 18:24 | 44.85687 | 1.46082 | 30118 ft | 472 kts | 86° |
| 2026-05-07 18:25 | 44.86037 | 1.50689 | 30328 ft | 474 kts | 86° |
| 2026-05-07 18:25 | 44.86385 | 1.55317 | 30534 ft | 475 kts | 86° |
| 2026-05-07 18:25 | 44.86731 | 1.59959 | 30728 ft | 477 kts | 86° |
| 2026-05-07 18:25 | 44.87077 | 1.64610 | 30909 ft | 478 kts | 86° |
| 2026-05-07 18:26 | 44.87424 | 1.69278 | 31076 ft | 479 kts | 86° |
| 2026-05-07 18:26 | 44.87772 | 1.73951 | 31304 ft | 479 kts | 86° |
| 2026-05-07 18:26 | 44.88115 | 1.78560 | 31548 ft | 479 kts | 86° |
| 2026-05-07 18:26 | 44.88459 | 1.83222 | 31786 ft | 478 kts | 86° |
| 2026-05-07 18:27 | 44.88801 | 1.87947 | 32023 ft | 478 kts | 86° |
| 2026-05-07 18:27 | 44.89129 | 1.92543 | 32243 ft | 478 kts | 86° |
| 2026-05-07 18:27 | 44.89462 | 1.97208 | 32481 ft | 478 kts | 86° |
| 2026-05-07 18:27 | 44.89687 | 2.00357 | 32647 ft | 477 kts | 86° |
| 2026-05-07 18:28 | 44.90124 | 2.06517 | 32958 ft | 477 kts | 86° |
| 2026-05-07 18:28 | 44.90453 | 2.11174 | 33193 ft | 477 kts | 86° |
| 2026-05-07 18:28 | 44.90780 | 2.15828 | 33418 ft | 477 kts | 86° |
| 2026-05-07 18:28 | 44.91105 | 2.20476 | 33655 ft | 476 kts | 86° |
| 2026-05-07 18:29 | 44.91427 | 2.25120 | 33882 ft | 476 kts | 86° |
| 2026-05-07 18:29 | 44.92054 | 2.34386 | 33975 ft | 471 kts | 87° |
| 2026-05-07 18:30 | 44.92677 | 2.43579 | 33972 ft | 470 kts | 86° |
| 2026-05-07 18:30 | 44.93297 | 2.52767 | 33974 ft | 471 kts | 87° |
| 2026-05-07 18:31 | 44.93905 | 2.61972 | 33971 ft | 471 kts | 87° |
| 2026-05-07 18:31 | 44.94596 | 2.71171 | 33977 ft | 473 kts | 79° |
| 2026-05-07 18:32 | 44.96777 | 2.79945 | 33969 ft | 474 kts | 70° |
| 2026-05-07 18:32 | 44.99168 | 2.88637 | 33968 ft | 475 kts | 70° |
| 2026-05-07 18:33 | 45.01556 | 2.97336 | 33964 ft | 475 kts | 70° |
| 2026-05-07 18:33 | 45.03947 | 3.06112 | 33960 ft | 475 kts | 70° |
| 2026-05-07 18:34 | 45.06293 | 3.14787 | 33964 ft | 476 kts | 70° |
| 2026-05-07 18:34 | 45.08667 | 3.23585 | 33962 ft | 476 kts | 70° |
| 2026-05-07 18:35 | 45.11027 | 3.32342 | 33963 ft | 476 kts | 70° |
| 2026-05-07 18:35 | 45.13378 | 3.41100 | 33969 ft | 476 kts | 70° |
| 2026-05-07 18:36 | 45.15725 | 3.49872 | 33973 ft | 476 kts | 70° |
| 2026-05-07 18:36 | 45.18054 | 3.58592 | 33978 ft | 476 kts | 70° |
| 2026-05-07 18:37 | 45.20384 | 3.67388 | 33976 ft | 477 kts | 70° |
| 2026-05-07 18:37 | 45.22722 | 3.76252 | 33979 ft | 477 kts | 70° |
| 2026-05-07 18:38 | 45.25024 | 3.85005 | 33976 ft | 477 kts | 70° |
| 2026-05-07 18:38 | 45.27343 | 3.93828 | 33975 ft | 477 kts | 70° |
| 2026-05-07 18:39 | 45.29654 | 4.02656 | 33976 ft | 477 kts | 70° |
| 2026-05-07 18:39 | 45.31962 | 4.11514 | 33978 ft | 477 kts | 70° |
| 2026-05-07 18:40 | 45.34257 | 4.20359 | 33871 ft | 476 kts | 70° |
| 2026-05-07 18:40 | 45.35009 | 4.23266 | 33664 ft | 470 kts | 70° |
| 2026-05-07 18:40 | 45.36130 | 4.27595 | 33159 ft | 464 kts | 70° |
| 2026-05-07 18:40 | 45.37241 | 4.31897 | 32503 ft | 463 kts | 70° |
| 2026-05-07 18:41 | 45.38348 | 4.36197 | 31815 ft | 463 kts | 70° |
| 2026-05-07 18:41 | 45.39457 | 4.40510 | 31108 ft | 464 kts | 70° |
| 2026-05-07 18:41 | 45.40566 | 4.44827 | 30394 ft | 465 kts | 70° |
| 2026-05-07 18:41 | 45.41674 | 4.49152 | 30095 ft | 466 kts | 70° |
| 2026-05-07 18:42 | 45.42783 | 4.53493 | 29963 ft | 467 kts | 70° |
| 2026-05-07 18:42 | 45.44995 | 4.62206 | 29999 ft | 468 kts | 70° |
| 2026-05-07 18:43 | 45.47207 | 4.70938 | 29999 ft | 469 kts | 70° |
| 2026-05-07 18:43 | 45.49421 | 4.79676 | 30000 ft | 469 kts | 70° |
| 2026-05-07 18:44 | 45.51631 | 4.88424 | 29998 ft | 469 kts | 70° |
| 2026-05-07 18:44 | 45.53833 | 4.97180 | 29992 ft | 469 kts | 70° |
| 2026-05-07 18:45 | 45.56021 | 5.05944 | 29988 ft | 469 kts | 71° |
| 2026-05-07 18:45 | 45.58200 | 5.14715 | 29987 ft | 469 kts | 71° |
| 2026-05-07 18:46 | 45.60353 | 5.23407 | 29974 ft | 455 kts | 71° |
| 2026-05-07 18:46 | 45.62445 | 5.31861 | 29882 ft | 449 kts | 71° |
| 2026-05-07 18:46 | 45.63479 | 5.36065 | 29551 ft | 448 kts | 71° |
| 2026-05-07 18:47 | 45.64511 | 5.40261 | 29111 ft | 448 kts | 71° |
| 2026-05-07 18:47 | 45.65545 | 5.44464 | 28694 ft | 449 kts | 71° |
| 2026-05-07 18:47 | 45.66579 | 5.48672 | 28332 ft | 448 kts | 71° |
| 2026-05-07 18:48 | 45.68633 | 5.57074 | 28478 ft | 448 kts | 71° |
| 2026-05-07 18:48 | 45.69656 | 5.61287 | 28703 ft | 449 kts | 71° |
| 2026-05-07 18:48 | 45.70680 | 5.65502 | 28919 ft | 449 kts | 71° |
| 2026-05-07 18:48 | 45.71768 | 5.69688 | 29137 ft | 449 kts | 65° |
| 2026-05-07 18:49 | 45.73240 | 5.73620 | 29360 ft | 449 kts | 56° |
| 2026-05-07 18:49 | 45.75121 | 5.77179 | 29590 ft | 447 kts | 46° |
| 2026-05-07 18:49 | 45.77336 | 5.80277 | 29830 ft | 445 kts | 39° |
| 2026-05-07 18:49 | 45.79652 | 5.83229 | 29963 ft | 446 kts | 39° |
| 2026-05-07 18:50 | 45.81961 | 5.86201 | 29978 ft | 446 kts | 40° |
| 2026-05-07 18:50 | 45.86564 | 5.92163 | 29978 ft | 446 kts | 40° |
| 2026-05-07 18:51 | 45.91160 | 5.98133 | 29977 ft | 445 kts | 40° |
| 2026-05-07 18:51 | 45.95759 | 6.04094 | 29977 ft | 445 kts | 39° |
| 2026-05-07 18:52 | 46.00357 | 6.10049 | 29977 ft | 445 kts | 40° |
| 2026-05-07 18:52 | 46.04947 | 6.16015 | 29982 ft | 444 kts | 40° |
| 2026-05-07 18:53 | 46.09523 | 6.22005 | 30002 ft | 445 kts | 40° |
| 2026-05-07 18:53 | 46.13980 | 6.28195 | 30001 ft | 445 kts | 43° |
| 2026-05-07 18:54 | 46.18358 | 6.34543 | 28719 ft | 454 kts | 43° |
| 2026-05-07 18:54 | 46.20628 | 6.37828 | 27370 ft | 467 kts | 43° |
| 2026-05-07 18:54 | 46.22939 | 6.41153 | 26395 ft | 470 kts | 43° |
| 2026-05-07 18:54 | 46.25257 | 6.44468 | 25565 ft | 468 kts | 43° |
| 2026-05-07 18:55 | 46.27551 | 6.47740 | 25202 ft | 456 kts | 43° |
| 2026-05-07 18:55 | 46.29774 | 6.50915 | 24956 ft | 443 kts | 43° |
| 2026-05-07 18:55 | 46.31939 | 6.54014 | 25055 ft | 438 kts | 42° |
| 2026-05-07 18:55 | 46.34104 | 6.57114 | 25000 ft | 437 kts | 43° |
| 2026-05-07 18:56 | 46.36267 | 6.60210 | 25010 ft | 437 kts | 43° |
| 2026-05-07 18:56 | 46.38426 | 6.63303 | 25010 ft | 437 kts | 43° |
| 2026-05-07 18:56 | 46.40583 | 6.66405 | 25016 ft | 437 kts | 43° |
| 2026-05-07 18:56 | 46.42734 | 6.69508 | 25017 ft | 437 kts | 43° |
| 2026-05-07 18:57 | 46.44887 | 6.72622 | 24887 ft | 437 kts | 43° |
| 2026-05-07 18:57 | 46.47031 | 6.75726 | 24681 ft | 435 kts | 43° |
| 2026-05-07 18:57 | 46.49168 | 6.78818 | 24467 ft | 433 kts | 43° |
| 2026-05-07 18:57 | 46.51291 | 6.81898 | 24255 ft | 431 kts | 43° |
| 2026-05-07 18:58 | 46.53406 | 6.84966 | 24046 ft | 429 kts | 43° |
| 2026-05-07 18:58 | 46.55510 | 6.88033 | 23840 ft | 428 kts | 45° |
| 2026-05-07 18:58 | 46.57425 | 6.91333 | 23631 ft | 427 kts | 49° |
| 2026-05-07 18:58 | 46.59285 | 6.94676 | 23388 ft | 425 kts | 49° |
| 2026-05-07 18:59 | 46.61142 | 6.98017 | 23144 ft | 423 kts | 49° |
| 2026-05-07 18:59 | 46.62989 | 7.01344 | 22896 ft | 422 kts | 49° |
| 2026-05-07 18:59 | 46.64828 | 7.04661 | 22658 ft | 420 kts | 49° |
| 2026-05-07 18:59 | 46.66664 | 7.07967 | 22407 ft | 419 kts | 48° |
| 2026-05-07 19:00 | 46.68696 | 7.10964 | 22173 ft | 415 kts | 41° |
| 2026-05-07 19:00 | 46.70804 | 7.13838 | 21911 ft | 414 kts | 41° |
| 2026-05-07 19:00 | 46.72897 | 7.16700 | 21651 ft | 412 kts | 41° |
| 2026-05-07 19:00 | 46.74984 | 7.19555 | 21388 ft | 411 kts | 41° |
| 2026-05-07 19:01 | 46.77069 | 7.22400 | 21125 ft | 409 kts | 41° |
| 2026-05-07 19:01 | 46.79143 | 7.25228 | 20869 ft | 408 kts | 41° |
| 2026-05-07 19:01 | 46.81212 | 7.28056 | 20609 ft | 406 kts | 41° |
| 2026-05-07 19:01 | 46.83266 | 7.30873 | 20359 ft | 405 kts | 41° |
| 2026-05-07 19:02 | 46.85010 | 7.33269 | 20157 ft | 403 kts | 41° |
| 2026-05-07 19:02 | 46.87051 | 7.36076 | 20002 ft | 402 kts | 41° |
| 2026-05-07 19:02 | 46.89087 | 7.38876 | 20028 ft | 402 kts | 41° |
| 2026-05-07 19:02 | 46.91123 | 7.41677 | 20030 ft | 403 kts | 41° |
| 2026-05-07 19:03 | 46.93162 | 7.44487 | 20027 ft | 403 kts | 42° |
| 2026-05-07 19:03 | 46.95198 | 7.47300 | 20028 ft | 403 kts | 42° |
| 2026-05-07 19:03 | 46.97235 | 7.50121 | 20031 ft | 403 kts | 42° |
| 2026-05-07 19:03 | 46.99271 | 7.52940 | 20030 ft | 403 kts | 42° |
| 2026-05-07 19:04 | 47.01305 | 7.55756 | 20031 ft | 402 kts | 42° |
| 2026-05-07 19:04 | 47.03340 | 7.58579 | 20034 ft | 403 kts | 42° |
| 2026-05-07 19:04 | 47.05372 | 7.61402 | 20032 ft | 403 kts | 42° |
| 2026-05-07 19:04 | 47.07403 | 7.64225 | 20034 ft | 402 kts | 42° |
| 2026-05-07 19:05 | 47.09437 | 7.67053 | 19961 ft | 403 kts | 42° |
| 2026-05-07 19:05 | 47.11467 | 7.69874 | 19709 ft | 401 kts | 42° |
| 2026-05-07 19:05 | 47.13487 | 7.72685 | 19465 ft | 400 kts | 42° |
| 2026-05-07 19:05 | 47.15503 | 7.75493 | 19223 ft | 399 kts | 42° |
| 2026-05-07 19:06 | 47.17506 | 7.78288 | 18958 ft | 394 kts | 42° |
| 2026-05-07 19:06 | 47.21453 | 7.83820 | 17957 ft | 390 kts | 42° |
| 2026-05-07 19:06 | 47.23409 | 7.86570 | 17444 ft | 388 kts | 43° |
| 2026-05-07 19:07 | 47.25355 | 7.89302 | 16948 ft | 385 kts | 43° |
| 2026-05-07 19:07 | 47.27290 | 7.92013 | 16430 ft | 383 kts | 42° |
| 2026-05-07 19:07 | 47.29215 | 7.94711 | 15936 ft | 381 kts | 43° |
| 2026-05-07 19:07 | 47.31128 | 7.97400 | 15433 ft | 380 kts | 43° |
| 2026-05-07 19:08 | 47.33038 | 8.00089 | 14924 ft | 379 kts | 43° |
| 2026-05-07 19:08 | 47.34938 | 8.02766 | 14408 ft | 378 kts | 43° |
| 2026-05-07 19:08 | 47.36733 | 8.05302 | 13936 ft | 377 kts | 43° |
| 2026-05-07 19:08 | 47.38539 | 8.07863 | 13771 ft | 365 kts | 43° |
| 2026-05-07 19:09 | 47.40342 | 8.10420 | 13542 ft | 355 kts | 43° |
| 2026-05-07 19:09 | 47.42136 | 8.12985 | 12794 ft | 362 kts | 46° |
| 2026-05-07 19:09 | 47.43529 | 8.16064 | 12273 ft | 361 kts | 66° |
| 2026-05-07 19:09 | 47.44163 | 8.19615 | 11968 ft | 359 kts | 86° |
| 2026-05-07 19:10 | 47.43994 | 8.23270 | 11715 ft | 356 kts | 106° |
| 2026-05-07 19:10 | 47.43043 | 8.26594 | 11461 ft | 350 kts | 126° |
| 2026-05-07 19:10 | 47.41445 | 8.29247 | 11214 ft | 345 kts | 142° |
| 2026-05-07 19:10 | 47.39623 | 8.31547 | 11045 ft | 344 kts | 142° |
| 2026-05-07 19:11 | 47.37907 | 8.34011 | 11048 ft | 346 kts | 133° |
| 2026-05-07 19:11 | 47.36510 | 8.36920 | 11053 ft | 349 kts | 122° |
| 2026-05-07 19:11 | 47.35493 | 8.40171 | 11050 ft | 351 kts | 111° |
| 2026-05-07 19:11 | 47.34891 | 8.43662 | 11053 ft | 353 kts | 100° |
| 2026-05-07 19:12 | 47.34625 | 8.47272 | 11055 ft | 354 kts | 97° |
| 2026-05-07 19:12 | 47.34377 | 8.50875 | 11051 ft | 353 kts | 97° |
| 2026-05-07 19:12 | 47.34122 | 8.54484 | 11055 ft | 354 kts | 97° |
| 2026-05-07 19:12 | 47.33863 | 8.58095 | 10819 ft | 353 kts | 97° |
| 2026-05-07 19:13 | 47.33602 | 8.61681 | 10572 ft | 351 kts | 97° |
| 2026-05-07 19:13 | 47.33346 | 8.65223 | 10327 ft | 343 kts | 97° |
| 2026-05-07 19:13 | 47.33096 | 8.68664 | 10084 ft | 333 kts | 97° |
| 2026-05-07 19:13 | 47.32852 | 8.71998 | 9918 ft | 321 kts | 98° |
| 2026-05-07 19:14 | 47.32616 | 8.75215 | 9771 ft | 310 kts | 97° |
| 2026-05-07 19:14 | 47.32390 | 8.78317 | 9644 ft | 300 kts | 97° |
| 2026-05-07 19:14 | 47.32168 | 8.81357 | 9462 ft | 298 kts | 97° |
| 2026-05-07 19:14 | 47.31989 | 8.84435 | 8928 ft | 300 kts | 89° |
| 2026-05-07 19:15 | 47.32454 | 8.87356 | 8371 ft | 292 kts | 62° |
| 2026-05-07 19:15 | 47.33751 | 8.89612 | 7947 ft | 278 kts | 34° |
| 2026-05-07 19:15 | 47.35393 | 8.90758 | 7792 ft | 256 kts | 12° |
| 2026-05-07 19:15 | 47.37174 | 8.91062 | 7323 ft | 258 kts | 2° |
| 2026-05-07 19:16 | 47.38981 | 8.91228 | 6889 ft | 257 kts | 2° |
| 2026-05-07 19:16 | 47.40749 | 8.91302 | 6400 ft | 252 kts | 352° |
| 2026-05-07 19:16 | 47.42308 | 8.90367 | 5979 ft | 243 kts | 319° |
| 2026-05-07 19:16 | 47.43263 | 8.88446 | 5763 ft | 225 kts | 289° |
| 2026-05-07 19:17 | 47.43538 | 8.86208 | 5660 ft | 219 kts | 275° |
| 2026-05-07 19:17 | 47.43702 | 8.83985 | 5386 ft | 215 kts | 276° |
| 2026-05-07 19:17 | 47.43862 | 8.81831 | 5095 ft | 208 kts | 276° |
| 2026-05-07 19:17 | 47.44015 | 8.79754 | 4823 ft | 200 kts | 276° |
| 2026-05-07 19:18 | 47.44163 | 8.77738 | 4512 ft | 190 kts | 276° |
| 2026-05-07 19:18 | 47.44300 | 8.75866 | 4215 ft | 180 kts | 277° |
| 2026-05-07 19:18 | 47.44389 | 8.74655 | 4047 ft | 172 kts | 277° |
| 2026-05-07 19:18 | 47.44551 | 8.72422 | 3735 ft | 158 kts | 277° |
| 2026-05-07 19:19 | 47.44666 | 8.70843 | 3508 ft | 152 kts | 277° |
| 2026-05-07 19:19 | 47.44778 | 8.69305 | 3294 ft | 150 kts | 277° |
| 2026-05-07 19:19 | 47.44883 | 8.67781 | 3111 ft | 149 kts | 277° |
| 2026-05-07 19:19 | 47.44997 | 8.66262 | 2892 ft | 149 kts | 278° |
| 2026-05-07 19:20 | 47.45103 | 8.64746 | 2678 ft | 149 kts | 276° |
| 2026-05-07 19:20 | 47.45175 | 8.63726 | 2491 ft | 147 kts | 278° |
| 2026-05-07 19:20 | 47.45290 | 8.62227 | 2221 ft | 146 kts | 277° |
| 2026-05-07 19:20 | 47.45389 | 8.60742 | 1966 ft | 145 kts | 277° |
| 2026-05-07 19:21 | 47.45499 | 8.59261 | 1768 ft | 145 kts | 277° |
| 2026-05-07 19:21 | 47.45605 | 8.57785 | 1570 ft | 144 kts | 277° |
| 2026-05-07 19:21 | 47.45710 | 8.56322 | 1429 ft | 136 kts | 278° |
| 2026-05-07 19:21 | 47.45800 | 8.55163 | 1396 ft | 77 kts | 276° |
| 2026-05-07 19:22 | 47.45828 | 8.54714 | 1396 ft | 13 kts | 273° |
| 2026-05-07 19:22 | 47.45824 | 8.54564 | 1390 ft | 16 kts | 260° |
| 2026-05-07 19:22 | 47.45798 | 8.54405 | 1388 ft | 16 kts | 250° |
| 2026-05-07 19:22 | 47.45743 | 8.54241 | 1385 ft | 19 kts | 230° |
| 2026-05-07 19:23 | 47.45634 | 8.54236 | 1386 ft | 15 kts | 143° |
| 2026-05-07 19:23 | 47.45593 | 8.54365 | 1387 ft | 13 kts | 108° |
| 2026-05-07 19:23 | 47.45567 | 8.54484 | 1388 ft | 11 kts | 108° |
| 2026-05-07 19:23 | 47.45547 | 8.54579 | 1390 ft | 8 kts | 107° |
| 2026-05-07 19:24 | 47.45532 | 8.54650 | 1387 ft | 9 kts | 108° |
| 2026-05-07 19:24 | 47.45505 | 8.54766 | 1391 ft | 12 kts | 107° |
| 2026-05-07 19:24 | 47.45480 | 8.54877 | 1392 ft | 11 kts | 110° |
| 2026-05-07 19:24 | 47.45447 | 8.55010 | 1397 ft | 16 kts | 109° |
| 2026-05-07 19:25 | 47.45411 | 8.55165 | 1401 ft | 16 kts | 108° |
| 2026-05-07 19:25 | 47.45368 | 8.55319 | 1405 ft | 17 kts | 120° |
| 2026-05-07 19:25 | 47.45312 | 8.55466 | 1406 ft | 14 kts | 118° |
| 2026-05-07 19:25 | 47.45276 | 8.55577 | 1406 ft | 10 kts | 104° |
| 2026-05-07 19:26 | 47.45268 | 8.55684 | 1407 ft | 8 kts | 96° |
| 2026-05-07 19:26 | 47.45230 | 8.55721 | 1407 ft | 8 kts | 189° |
| 2026-05-07 19:26 | 47.45195 | 8.55714 | 1410 ft | 2 kts | 186° |
| 2026-05-07 19:26 | 47.45185 | 8.55713 | 1407 ft | 1 kts | 186° |